createdAt,value
2018-11-03T00:01:57.155Z,99088.52
2018-11-03T00:04:28.334Z,99089.41
2018-11-03T00:06:59.291Z,99091.16
2018-11-03T00:09:29.611Z,99079.03
2018-11-03T00:11:59.883Z,99089.73
2018-11-03T00:14:30.129Z,99095.25
2018-11-03T00:17:00.425Z,99095.25
2018-11-03T00:19:30.679Z,99088.78
2018-11-03T00:22:00.938Z,99088.34
2018-11-03T00:24:31.173Z,99091.81
2018-11-03T00:27:01.462Z,99093.11
2018-11-03T00:29:31.713Z,99099.16
2018-11-03T00:32:02.101Z,99097.43
2018-11-03T00:34:32.338Z,99096.57
2018-11-03T00:37:02.629Z,99100.02
2018-11-03T00:39:33.067Z,99102.58
2018-11-03T00:42:03.313Z,99094.79
2018-11-03T00:44:33.634Z,99098.70
2018-11-03T00:47:03.835Z,99099.59
2018-11-03T00:49:34.121Z,99100.02
2018-11-03T00:52:04.465Z,99098.28
2018-11-03T00:54:34.713Z,99095.25
2018-11-03T00:57:04.942Z,99093.53
2018-11-03T00:59:35.273Z,99090.52
2018-11-03T01:02:05.845Z,99088.78
2018-11-03T01:04:36.204Z,99087.48
2018-11-03T01:07:06.480Z,99088.78
2018-11-03T01:09:36.969Z,99085.32
2018-11-03T01:12:07.185Z,99083.14
2018-11-03T01:14:37.462Z,99083.56
2018-11-03T01:17:07.763Z,99076.19
2018-11-03T01:19:38.126Z,99067.98
2018-11-03T01:22:08.421Z,99069.72
2018-11-03T01:24:38.698Z,99073.61
2018-11-03T01:27:08.920Z,99074.05
2018-11-03T01:29:39.176Z,99079.66
2018-11-03T01:32:09.426Z,99078.37
2018-11-03T01:34:39.715Z,99069.72
2018-11-03T01:37:10.038Z,99061.92
2018-11-03T01:39:40.299Z,99059.33
2018-11-03T01:42:10.762Z,99052.91
2018-11-03T01:44:41.016Z,99044.20
2018-11-03T01:47:11.277Z,99046.80
2018-11-03T01:49:41.534Z,99051.20
2018-11-03T01:52:11.690Z,99052.91
2018-11-03T01:54:42.032Z,99049.48
2018-11-03T01:57:12.484Z,99055.53
2018-11-03T01:59:42.832Z,99046.44
2018-11-03T02:02:13.029Z,99048.63
2018-11-03T02:04:43.313Z,99053.38
2018-11-03T02:07:13.525Z,99060.31
2018-11-03T02:09:43.890Z,99062.47
2018-11-03T02:12:14.173Z,99065.93
2018-11-03T02:14:44.373Z,99065.97
2018-11-03T02:17:14.662Z,99066.44
2018-11-03T02:19:44.961Z,99072.52
2018-11-03T02:22:15.156Z,99076.43
2018-11-03T02:24:45.469Z,99081.63
2018-11-03T02:27:15.763Z,99088.53
2018-11-03T02:29:46.063Z,99086.37
2018-11-03T02:32:16.570Z,99091.16
2018-11-03T02:34:46.846Z,99097.64
2018-11-03T02:37:17.295Z,99095.51
2018-11-03T02:39:47.573Z,99103.37
2018-11-03T02:42:18.000Z,99114.56
2018-11-03T02:44:48.273Z,99109.79
2018-11-03T02:47:18.670Z,99118.44
2018-11-03T02:49:48.992Z,99120.63
2018-11-03T02:52:19.224Z,99123.72
2018-11-03T02:54:49.656Z,99124.53
2018-11-03T02:57:19.898Z,99120.61
2018-11-03T02:59:50.198Z,99119.31
2018-11-03T03:02:20.463Z,99115.41
2018-11-03T03:04:50.712Z,99116.26
2018-11-03T03:07:21.045Z,99108.89
2018-11-03T03:09:51.399Z,99111.48
2018-11-03T03:12:21.730Z,99122.73
2018-11-03T03:14:52.057Z,99127.94
2018-11-03T03:17:22.353Z,99123.21
2018-11-03T03:19:52.678Z,99122.84
2018-11-03T03:22:22.941Z,99130.63
2018-11-03T03:24:53.253Z,99131.93
2018-11-03T03:27:23.498Z,99128.03
2018-11-03T03:29:53.821Z,99128.91
2018-11-03T03:32:24.097Z,99120.25
2018-11-03T03:34:54.374Z,99111.59
2018-11-03T03:37:24.703Z,99115.53
2018-11-03T03:39:55.037Z,99109.06
2018-11-03T03:42:25.327Z,99105.61
2018-11-03T03:44:55.575Z,99116.42
2018-11-03T03:47:25.810Z,99117.30
2018-11-03T03:49:56.133Z,99117.80
2018-11-03T03:52:26.512Z,99122.55
2018-11-03T03:54:56.790Z,99116.94
2018-11-03T03:57:27.186Z,99122.55
2018-11-03T03:59:57.430Z,99126.88
2018-11-03T04:02:27.673Z,99133.38
2018-11-03T04:04:57.997Z,99140.73
2018-11-03T04:07:28.322Z,99146.35
2018-11-03T04:09:58.549Z,99142.48
2018-11-03T04:12:28.842Z,99145.51
2018-11-03T04:15:00.553Z,99140.75
2018-11-03T04:17:30.905Z,99134.70
2018-11-03T04:20:01.209Z,99136.00
2018-11-03T04:22:32.203Z,99126.94
2018-11-03T04:25:02.444Z,99132.11
2018-11-03T04:27:32.745Z,99133.41
2018-11-03T04:30:03.136Z,99137.30
2018-11-03T04:32:33.391Z,99140.75
2018-11-03T04:35:03.794Z,99133.39
2018-11-03T04:37:34.097Z,99132.53
2018-11-03T04:40:05.014Z,99131.67
2018-11-03T04:42:35.334Z,99132.13
2018-11-03T04:45:05.974Z,99134.72
2018-11-03T04:47:36.395Z,99136.48
2018-11-03T04:50:08.617Z,99137.41
2018-11-03T04:52:38.965Z,99136.97
2018-11-03T04:55:09.890Z,99133.52
2018-11-03T04:57:40.537Z,99127.46
2018-11-03T05:00:11.348Z,99124.88
2018-11-03T05:02:41.559Z,99124.02
2018-11-03T05:05:11.885Z,99121.45
2018-11-03T05:07:43.177Z,99122.74
2018-11-03T05:10:13.619Z,99118.05
2018-11-03T05:12:43.916Z,99122.83
2018-11-03T05:15:14.312Z,99118.52
2018-11-03T05:17:44.569Z,99121.11
2018-11-03T05:20:14.905Z,99121.95
2018-11-03T05:22:45.177Z,99126.28
2018-11-03T05:25:15.549Z,99136.21
2018-11-03T05:27:45.809Z,99131.89
2018-11-03T05:30:16.283Z,99139.20
2018-11-03T05:32:46.572Z,99135.72
2018-11-03T05:35:16.969Z,99144.35
2018-11-03T05:37:47.401Z,99146.92
2018-11-03T05:40:18.043Z,99140.00
2018-11-03T05:42:48.299Z,99145.56
2018-11-03T05:45:18.651Z,99142.53
2018-11-03T05:47:49.113Z,99146.48
2018-11-03T05:50:19.464Z,99145.20
2018-11-03T05:52:49.707Z,99148.21
2018-11-03T05:55:19.987Z,99148.21
2018-11-03T05:57:50.269Z,99137.39
2018-11-03T06:00:20.683Z,99143.02
2018-11-03T06:02:50.897Z,99133.08
2018-11-03T06:05:21.215Z,99137.39
2018-11-03T06:07:51.419Z,99139.08
2018-11-03T06:10:21.739Z,99141.67
2018-11-03T06:12:51.974Z,99143.81
2018-11-03T06:15:22.350Z,99149.42
2018-11-03T06:17:52.730Z,99158.95
2018-11-03T06:20:22.976Z,99163.26
2018-11-03T06:22:53.332Z,99167.14
2018-11-03T06:25:23.663Z,99171.02
2018-11-03T06:27:53.985Z,99175.27
2018-11-03T06:30:24.345Z,99174.80
2018-11-03T06:32:54.571Z,99182.95
2018-11-03T06:35:25.006Z,99185.97
2018-11-03T06:37:55.272Z,99189.00
2018-11-03T06:40:25.563Z,99185.97
2018-11-03T06:42:55.809Z,99186.39
2018-11-03T06:45:26.176Z,99192.42
2018-11-03T06:47:56.531Z,99194.13
2018-11-03T06:50:26.822Z,99194.05
2018-11-03T06:52:57.122Z,99196.23
2018-11-03T06:55:27.483Z,99197.51
2018-11-03T06:57:57.953Z,99191.38
2018-11-03T07:00:28.267Z,99195.19
2018-11-03T07:02:58.677Z,99192.08
2018-11-03T07:05:29.114Z,99186.41
2018-11-03T07:07:59.421Z,99184.12
2018-11-03T07:10:29.757Z,99186.56
2018-11-03T07:13:00.126Z,99187.75
2018-11-03T07:15:30.252Z,99182.81
2018-11-03T07:18:00.738Z,99185.27
2018-11-03T07:20:31.418Z,99182.57
2018-11-03T07:23:02.290Z,99180.37
2018-11-03T07:25:32.804Z,99182.36
2018-11-03T07:28:03.258Z,99177.81
2018-11-03T07:30:33.766Z,99173.19
2018-11-03T07:33:04.273Z,99174.64
2018-11-03T07:35:34.937Z,99174.45
2018-11-03T07:38:05.646Z,99178.58
2018-11-03T07:40:36.762Z,99167.14
2018-11-03T07:43:13.539Z,99170.49
2018-11-03T07:45:44.128Z,99170.85
2018-11-03T07:48:14.785Z,99169.76
2018-11-03T07:50:44.839Z,99170.38
2018-11-03T07:53:15.277Z,99161.89
2018-11-03T07:55:45.585Z,99164.54
2018-11-03T07:58:15.869Z,99163.08
2018-11-03T08:00:46.245Z,99160.70
2018-11-03T08:03:16.424Z,99159.37
2018-11-03T08:05:46.767Z,99152.50
2018-11-03T08:08:17.196Z,99143.04
2018-11-03T08:10:47.459Z,99145.15
2018-11-03T08:13:17.845Z,99137.84
2018-11-03T08:15:48.367Z,99134.80
2018-11-03T08:18:18.617Z,99137.50
2018-11-03T08:20:48.979Z,99142.00
2018-11-03T08:23:19.281Z,99144.20
2018-11-03T08:25:49.563Z,99145.89
2018-11-03T08:28:19.826Z,99147.04
2018-11-03T08:30:50.052Z,99147.41
2018-11-03T08:33:20.301Z,99144.40
2018-11-03T08:35:50.796Z,99146.16
2018-11-03T08:38:21.054Z,99146.57
2018-11-03T08:40:51.305Z,99148.22
2018-11-03T08:43:23.355Z,99147.22
2018-11-03T08:45:53.647Z,99147.52
2018-11-03T08:48:23.929Z,99149.17
2018-11-03T08:50:54.193Z,99150.94
2018-11-03T08:53:24.499Z,99153.24
2018-11-03T08:55:54.711Z,99145.97
2018-11-03T08:58:25.096Z,99150.22
2018-11-03T09:00:55.500Z,99142.32
2018-11-03T09:03:25.758Z,99137.45
2018-11-03T09:05:56.142Z,99147.23
2018-11-03T09:08:26.447Z,99144.62
2018-11-03T09:10:56.957Z,99146.55
2018-11-03T09:13:27.275Z,99147.78
2018-11-03T09:15:57.545Z,99148.50
2018-11-03T09:18:27.829Z,99147.47
2018-11-03T09:20:58.114Z,99151.56
2018-11-03T09:23:28.340Z,99151.25
2018-11-03T09:25:58.620Z,99147.73
2018-11-03T09:28:28.941Z,99150.26
2018-11-03T09:30:59.300Z,99145.62
2018-11-03T09:33:29.901Z,99143.23
2018-11-03T09:36:00.436Z,99142.33
2018-11-03T09:38:31.002Z,99137.22
2018-11-03T09:41:01.589Z,99134.69
2018-11-03T09:43:32.381Z,99123.56
2018-11-03T09:46:02.720Z,99128.69
2018-11-03T09:48:33.025Z,99120.25
2018-11-03T09:51:03.337Z,99123.01
2018-11-03T09:53:33.679Z,99133.59
2018-11-03T09:56:04.043Z,99131.03
2018-11-03T09:58:34.554Z,99126.98
2018-11-03T10:01:05.114Z,99124.07
2018-11-03T10:03:35.755Z,99131.44
2018-11-03T10:06:06.245Z,99130.70
2018-11-03T10:08:36.583Z,99121.73
2018-11-03T10:11:06.883Z,99127.83
2018-11-03T10:13:37.193Z,99125.05
2018-11-03T10:16:07.813Z,99129.30
2018-11-03T10:18:37.975Z,99131.88
2018-11-03T10:21:20.896Z,99135.02
2018-11-03T10:23:51.233Z,99129.53
2018-11-03T10:26:21.627Z,99130.98
2018-11-03T10:28:51.903Z,99125.05
2018-11-03T10:31:22.193Z,99118.66
2018-11-03T10:33:52.680Z,99120.70
2018-11-03T10:36:22.958Z,99111.22
2018-11-03T10:38:53.198Z,99119.24
2018-11-03T10:41:23.445Z,99117.42
2018-11-03T10:43:53.629Z,99108.90
2018-11-03T10:46:24.067Z,99112.11
2018-11-03T10:48:54.135Z,99108.13
2018-11-03T10:51:24.471Z,99104.14
2018-11-03T10:53:54.721Z,99110.64
2018-11-03T10:56:25.111Z,99101.03
2018-11-03T10:58:58.213Z,99101.68
2018-11-03T11:01:34.430Z,99091.95
2018-11-03T11:04:10.007Z,99080.93
2018-11-03T11:06:45.553Z,99077.86
2018-11-03T11:09:21.147Z,99075.92
2018-11-03T11:11:56.666Z,99072.30
2018-11-03T11:14:26.996Z,99074.28
2018-11-03T11:16:57.275Z,99076.42
2018-11-03T11:19:27.527Z,99072.94
2018-11-03T11:21:57.942Z,99072.41
2018-11-03T11:24:28.234Z,99068.34
2018-11-03T11:26:58.503Z,99069.27
2018-11-03T11:29:28.850Z,99064.47
2018-11-03T11:31:59.046Z,99063.85
2018-11-03T11:34:29.316Z,99067.02
2018-11-03T11:36:59.538Z,99062.55
2018-11-03T11:39:29.814Z,99057.73
2018-11-03T11:42:00.006Z,99053.55
2018-11-03T11:44:30.282Z,99045.00
2018-11-03T11:47:00.788Z,99039.91
2018-11-03T11:49:31.127Z,99038.73
2018-11-03T11:52:01.493Z,99038.17
2018-11-03T11:54:31.802Z,99045.55
2018-11-03T11:57:02.101Z,99043.45
2018-11-03T11:59:32.488Z,99040.41
2018-11-03T12:02:02.840Z,99038.02
2018-11-03T12:04:33.405Z,99034.22
2018-11-03T12:07:04.353Z,99035.02
2018-11-03T12:09:35.066Z,99037.82
2018-11-03T12:12:06.002Z,99037.05
2018-11-03T12:14:36.821Z,99028.20
2018-11-03T12:17:08.305Z,99029.53
2018-11-03T12:19:39.227Z,99019.88
2018-11-03T12:22:09.651Z,99020.55
2018-11-03T12:24:40.580Z,99012.05
2018-11-03T12:27:11.032Z,99013.95
2018-11-03T12:29:42.456Z,99015.02
2018-11-03T12:32:13.155Z,99005.89
2018-11-03T12:34:45.045Z,99015.06
2018-11-03T12:37:19.345Z,99010.28
2018-11-03T12:39:50.149Z,99008.33
2018-11-03T12:42:20.532Z,99010.55
2018-11-03T12:44:50.936Z,99008.05
2018-11-03T12:47:21.376Z,99007.02
2018-11-03T12:49:56.298Z,98999.09
2018-11-03T12:52:27.413Z,98996.81
2018-11-03T12:54:57.972Z,98999.89
2018-11-03T12:57:30.222Z,98998.83
2018-11-03T13:00:00.958Z,98992.08
2018-11-03T13:02:31.399Z,98984.61
2018-11-03T13:05:02.947Z,98981.38
2018-11-03T13:07:33.602Z,98984.25
2018-11-03T13:10:07.307Z,98973.84
2018-11-03T13:12:38.518Z,98968.14
2018-11-03T13:15:16.668Z,98964.82
2018-11-03T13:17:47.329Z,98964.84
2018-11-03T13:20:19.324Z,98966.04
2018-11-03T13:22:50.300Z,98963.13
2018-11-03T13:25:21.144Z,98964.39
2018-11-03T13:27:52.161Z,98959.30
2018-11-03T13:30:23.090Z,98964.94
2018-11-03T13:32:53.402Z,98963.14
2018-11-03T13:35:23.806Z,98957.50
2018-11-03T13:37:54.075Z,98957.78
2018-11-03T13:40:24.395Z,98952.75
2018-11-03T13:42:54.751Z,98949.09
2018-11-03T13:45:25.047Z,98951.63
2018-11-03T13:47:55.472Z,98957.22
2018-11-03T13:50:29.899Z,98953.60
2018-11-03T13:53:00.185Z,98953.09
2018-11-03T13:55:30.499Z,98955.02
2018-11-03T13:58:00.793Z,98958.89
2018-11-03T14:00:31.115Z,98958.17
2018-11-03T14:03:01.411Z,98955.61
2018-11-03T14:05:31.677Z,98951.73
2018-11-03T14:08:02.019Z,98950.88
2018-11-03T14:10:32.333Z,98953.28
2018-11-03T14:13:02.605Z,98945.26
2018-11-03T14:15:32.899Z,98941.13
2018-11-03T14:18:03.161Z,98945.91
2018-11-03T14:20:33.493Z,98946.02
2018-11-03T14:23:03.650Z,98934.95
2018-11-03T14:25:34.051Z,98940.56
2018-11-03T14:28:04.427Z,98939.94
2018-11-03T14:30:34.650Z,98933.99
2018-11-03T14:33:05.067Z,98936.72
2018-11-03T14:35:35.598Z,98934.16
2018-11-03T14:38:06.059Z,98933.55
2018-11-03T14:40:36.341Z,98928.83
2018-11-03T14:43:07.261Z,98935.23
2018-11-03T14:45:37.779Z,98930.39
2018-11-03T14:48:08.315Z,98927.48
2018-11-03T14:50:39.005Z,98923.17
2018-11-03T14:53:14.814Z,98919.48
2018-11-03T14:55:45.392Z,98918.63
2018-11-03T14:58:15.815Z,98914.36
2018-11-03T15:00:46.653Z,98918.07
2018-11-03T15:03:17.453Z,98917.43
2018-11-03T15:05:47.782Z,98912.69
2018-11-03T15:08:18.128Z,98915.76
2018-11-03T15:10:48.457Z,98914.61
2018-11-03T15:13:18.883Z,98907.80
2018-11-03T15:15:49.322Z,98907.64
2018-11-03T15:18:19.605Z,98901.00
2018-11-03T15:20:50.085Z,98896.14
2018-11-03T15:23:20.354Z,98900.14
2018-11-03T15:25:50.778Z,98900.25
2018-11-03T15:28:21.014Z,98906.33
2018-11-03T15:30:51.292Z,98897.69
2018-11-03T15:33:21.621Z,98898.14
2018-11-03T15:35:51.971Z,98896.83
2018-11-03T15:38:22.226Z,98895.41
2018-11-03T15:40:52.547Z,98895.86
2018-11-03T15:43:23.010Z,98897.63
2018-11-03T15:45:53.304Z,98895.86
2018-11-03T15:48:23.544Z,98902.03
2018-11-03T15:50:53.903Z,98897.63
2018-11-03T15:53:24.201Z,98898.16
2018-11-03T15:55:54.522Z,98900.08
2018-11-03T15:58:24.777Z,98896.23
2018-11-03T16:00:55.047Z,98897.14
2018-11-03T16:03:25.450Z,98893.72
2018-11-03T16:05:55.702Z,98891.11
2018-11-03T16:08:25.992Z,98889.91
2018-11-03T16:10:57.096Z,98889.95
2018-11-03T16:13:27.404Z,98894.81
2018-11-03T16:15:59.341Z,98897.02
2018-11-03T16:18:29.696Z,98894.41
2018-11-03T16:21:00.328Z,98893.10
2018-11-03T16:23:30.708Z,98886.97
2018-11-03T16:26:01.437Z,98891.20
2018-11-03T16:28:31.739Z,98890.81
2018-11-03T16:31:02.280Z,98891.80
2018-11-03T16:33:32.666Z,98898.33
2018-11-03T16:36:03.004Z,98897.80
2018-11-03T16:38:33.406Z,98895.72
2018-11-03T16:41:05.550Z,98900.09
2018-11-03T16:43:35.968Z,98899.69
2018-11-03T16:46:06.354Z,98904.91
2018-11-03T16:48:36.757Z,98900.14
2018-11-03T16:51:07.139Z,98903.02
2018-11-03T16:53:37.444Z,98905.72
2018-11-03T16:56:08.036Z,98909.19
2018-11-03T16:58:40.794Z,98907.02
2018-11-03T17:01:18.599Z,98907.02
2018-11-03T17:03:48.918Z,98901.45
2018-11-03T17:06:19.375Z,98904.11
2018-11-03T17:08:49.657Z,98899.84
2018-11-03T17:11:20.008Z,98902.94
2018-11-03T17:13:50.403Z,98902.08
2018-11-03T17:16:21.041Z,98898.20
2018-11-03T17:18:51.577Z,98906.55
2018-11-03T17:21:21.825Z,98907.41
2018-11-03T17:23:52.072Z,98910.52
2018-11-03T17:26:22.378Z,98908.80
2018-11-03T17:28:52.957Z,98900.56
2018-11-03T17:31:23.328Z,98903.18
2018-11-03T17:33:53.600Z,98899.80
2018-11-03T17:36:23.990Z,98899.34
2018-11-03T17:38:54.273Z,98891.09
2018-11-03T17:41:24.589Z,98898.03
2018-11-03T17:43:54.899Z,98886.33
2018-11-03T17:46:25.381Z,98885.12
2018-11-03T17:48:55.745Z,98889.89
2018-11-03T17:51:26.285Z,98884.31
2018-11-03T17:53:56.779Z,98883.86
2018-11-03T17:56:27.102Z,98876.95
2018-11-03T17:58:57.422Z,98879.22
2018-11-03T18:01:27.879Z,98876.15
2018-11-03T18:03:58.020Z,98879.27
2018-11-03T18:06:28.595Z,98876.30
2018-11-03T18:08:58.953Z,98878.59
2018-11-03T18:11:29.338Z,98883.41
2018-11-03T18:13:59.631Z,98878.23
2018-11-03T18:16:30.056Z,98873.01
2018-11-03T18:19:14.372Z,98876.08
2018-11-03T18:21:45.257Z,98870.49
2018-11-03T18:24:15.775Z,98871.03
2018-11-03T18:26:46.085Z,98858.42
2018-11-03T18:29:16.662Z,98861.98
2018-11-03T18:31:47.022Z,98861.12
2018-11-03T18:34:17.540Z,98863.91
2018-11-03T18:36:47.889Z,98853.97
2018-11-03T18:39:29.715Z,98855.87
2018-11-03T18:42:00.409Z,98852.03
2018-11-03T18:44:30.671Z,98854.25
2018-11-03T18:47:01.062Z,98843.45
2018-11-03T18:49:31.381Z,98850.11
2018-11-03T18:52:01.645Z,98843.67
2018-11-03T18:54:32.159Z,98847.23
2018-11-03T18:57:05.819Z,98845.53
2018-11-03T18:59:36.057Z,98852.53
2018-11-03T19:02:06.467Z,98852.13
2018-11-03T19:04:36.733Z,98850.42
2018-11-03T19:07:07.034Z,98847.45
2018-11-03T19:09:37.323Z,98851.41
2018-11-03T19:12:07.927Z,98850.16
2018-11-03T19:14:38.203Z,98846.32
2018-11-03T19:17:08.717Z,98848.93
2018-11-03T19:19:39.348Z,98847.63
2018-11-03T19:22:10.038Z,98848.48
2018-11-03T19:24:40.842Z,98850.69
2018-11-03T19:27:11.526Z,98852.94
2018-11-03T19:29:42.314Z,98842.55
2018-11-03T19:32:13.042Z,98855.55
2018-11-03T19:34:43.651Z,98848.21
2018-11-03T19:37:14.398Z,98849.97
2018-11-03T19:39:44.996Z,98849.19
2018-11-03T19:42:15.975Z,98848.74
2018-11-03T19:44:46.606Z,98845.33
2018-11-03T19:47:17.284Z,98849.23
2018-11-03T19:49:47.902Z,98847.17
2018-11-03T19:52:18.715Z,98842.40
2018-11-03T19:54:49.236Z,98841.55
2018-11-03T19:57:24.133Z,98840.36
2018-11-03T19:59:54.507Z,98836.90
2018-11-03T20:02:24.906Z,98844.73
2018-11-03T20:04:55.214Z,98840.81
2018-11-03T20:07:25.470Z,98842.97
2018-11-03T20:09:55.661Z,98844.28
2018-11-03T20:12:25.976Z,98841.67
2018-11-03T20:14:56.281Z,98838.66
2018-11-03T20:17:26.648Z,98839.55
2018-11-03T20:19:57.068Z,98836.09
2018-11-03T20:22:27.402Z,98826.15
2018-11-03T20:24:57.698Z,98822.77
2018-11-03T20:27:28.003Z,98829.78
2018-11-03T20:29:58.374Z,98829.33
2018-11-03T20:32:28.730Z,98823.70
2018-11-03T20:34:59.076Z,98825.06
2018-11-03T20:37:29.452Z,98822.85
2018-11-03T20:39:59.703Z,98815.92
2018-11-03T20:42:30.718Z,98814.27
2018-11-03T20:45:01.054Z,98817.32
2018-11-03T20:47:31.384Z,98811.25
2018-11-03T20:50:01.902Z,98802.97
2018-11-03T20:52:32.279Z,98805.75
2018-11-03T20:55:02.584Z,98801.43
2018-11-03T20:57:32.846Z,98803.19
2018-11-03T21:00:03.474Z,98803.63
2018-11-03T21:02:33.764Z,98803.14
2018-11-03T21:05:04.206Z,98795.31
2018-11-03T21:07:34.566Z,98796.78
2018-11-03T21:10:05.537Z,98800.22
2018-11-03T21:12:35.938Z,98793.70
2018-11-03T21:15:06.437Z,98792.47
2018-11-03T21:17:40.374Z,98789.45
2018-11-03T21:20:10.805Z,98787.75
2018-11-03T21:22:41.214Z,98789.09
2018-11-03T21:25:11.602Z,98785.67
2018-11-03T21:27:42.127Z,98783.92
2018-11-03T21:30:12.978Z,98787.06
2018-11-03T21:32:43.378Z,98777.98
2018-11-03T21:35:14.493Z,98773.70
2018-11-03T21:37:45.357Z,98769.44
2018-11-03T21:40:15.657Z,98765.12
2018-11-03T21:42:46.165Z,98763.77
2018-11-03T21:45:16.623Z,98763.31
2018-11-03T21:47:46.969Z,98765.87
2018-11-03T21:50:17.266Z,98768.08
2018-11-03T21:52:47.593Z,98763.77
2018-11-03T21:55:18.105Z,98766.28
2018-11-03T21:57:48.421Z,98770.65
2018-11-03T22:00:18.888Z,98760.66
2018-11-03T22:02:49.173Z,98758.06
2018-11-03T22:05:19.415Z,98755.09
2018-11-03T22:07:49.801Z,98746.94
2018-11-03T22:10:20.099Z,98746.94
2018-11-03T22:12:50.351Z,98754.31
2018-11-03T22:15:20.651Z,98746.98
2018-11-03T22:17:51.134Z,98752.65
2018-11-03T22:20:21.409Z,98747.48
2018-11-03T22:22:51.756Z,98739.66
2018-11-03T22:25:21.998Z,98746.22
2018-11-03T22:27:52.567Z,98751.88
2018-11-03T22:30:22.855Z,98757.09
2018-11-03T22:32:53.183Z,98760.16
2018-11-03T22:35:23.477Z,98754.94
2018-11-03T22:37:53.859Z,98746.22
2018-11-03T22:40:24.135Z,98742.84
2018-11-03T22:42:54.573Z,98738.97
2018-11-03T22:45:24.872Z,98741.91
2018-11-03T22:47:55.176Z,98734.84
2018-11-03T22:50:25.542Z,98735.30
2018-11-03T22:52:55.813Z,98736.81
2018-11-03T22:55:26.205Z,98727.38
2018-11-03T22:57:56.612Z,98725.34
2018-11-03T23:00:26.862Z,98723.22
2018-11-03T23:02:57.218Z,98725.42
2018-11-03T23:05:27.480Z,98718.17
2018-11-03T23:07:57.795Z,98717.77
2018-11-03T23:10:27.992Z,98709.09
2018-11-03T23:12:58.308Z,98706.98
2018-11-03T23:15:28.486Z,98703.48
2018-11-03T23:17:58.795Z,98706.89
2018-11-03T23:20:29.166Z,98701.60
2018-11-03T23:22:59.449Z,98694.14
2018-11-03T23:25:29.745Z,98694.95
2018-11-03T23:28:00.067Z,98690.64
2018-11-03T23:30:30.408Z,98691.49
2018-11-03T23:33:00.791Z,98685.78
2018-11-03T23:35:31.074Z,98673.69
2018-11-03T23:38:01.436Z,98674.14
2018-11-03T23:40:31.791Z,98674.14
2018-11-03T23:43:02.015Z,98665.88
2018-11-03T23:45:32.389Z,98657.15
2018-11-03T23:48:02.759Z,98661.47
2018-11-03T23:50:33.153Z,98651.08
2018-11-03T23:53:03.521Z,98652.84
2018-11-03T23:55:33.789Z,98649.83
2018-11-03T23:58:04.234Z,98643.36
